NCAR-RAP Real-Time Weather Data

Output produced by METARs form (23 February 2020  02:37 UTC)
found at http://weather.rap.ucar.edu/surface/
 
KMEM 230154Z 16005KT 10SM BKN230 07/M03 A3028 RMK AO2 SLP256 T00671028
KMEM 230054Z 20004KT 10SM FEW140 SCT230 07/M03 A3031 RMK AO2 SLP265 T00671028
KMEM 222354Z 23004KT 10SM FEW140 BKN230 08/M03 A3032 RMK AO2 SLP268 T00781028 10122 20078 58012
KMEM 222254Z 26006KT 10SM BKN250 09/M03 A3033 RMK AO2 SLP272 T00941028
KMEM 222154Z 22010KT 10SM BKN250 12/M05 A3034 RMK AO2 SLP276 T01171050
KMEM 222054Z 18006KT 10SM SCT200 11/M07 A3035 RMK AO2 SLP279 T01061067 56035
KMEM 221954Z 16006KT 10SM SCT250 11/M08 A3037 RMK AO2 SLP286 T01061083
KMEM 221854Z 22004KT 10SM SCT250 10/M07 A3041 RMK AO2 SLP298 T01001067
KMEM 221754Z VRB05KT 10SM SCT250 09/M07 A3046 RMK AO2 SLP314 T00891067 10094 21033 58015
KMEM 221654Z VRB05KT 10SM FEW250 08/M08 A3048 RMK AO2 SLP324 T00781078
KMEM 221554Z 22005KT 10SM FEW250 07/M07 A3050 RMK AO2 SLP328 T00671072
KMEM 221454Z 18005KT 10SM FEW250 03/M06 A3050 RMK AO2 SLP330 T00331061 53010
KMEM 221354Z 17003KT 10SM FEW250 M01/M06 A3048 RMK AO2 SLP325 T10061061
KMEM 221254Z 00000KT 10SM FEW250 M03/M06 A3047 RMK AO2 SLP321 T10281061
KMEM 221154Z 00000KT 10SM FEW250 M03/M07 A3047 RMK AO2 SLP320 T10281067 10006 21039 55003
KMEM 221054Z 13006KT 10SM CLR M02/M07 A3046 RMK AO2 SLP316 T10171067
KMEM 220954Z 15004KT 10SM CLR M01/M06 A3048 RMK AO2 SLP322 T10111061
KMEM 220854Z 00000KT 10SM CLR M03/M06 A3048 RMK AO2 SLP323 T10281061 58013
KMEM 220754Z 00000KT 10SM CLR M02/M06 A3049 RMK AO2 SLP327 T10221061
KMEM 220654Z 00000KT 10SM CLR M02/M07 A3051 RMK AO2 SLP333 T10171067
KMEM 220554Z 00000KT 10SM CLR M02/M07 A3052 RMK AO2 SLP336 T10171067 10022 21017 400671039 56007
KMEM 220454Z VRB05KT 10SM CLR 01/M07 A3052 RMK AO2 SLP337 T00061072
KMEM 220354Z 06005KT 10SM CLR 01/M07 A3053 RMK AO2 SLP340 T00061067
KMEM 220254Z 04003KT 10SM CLR 01/M07 A3054 RMK AO2 SLP343 T00061067 58002
KMEM 220154Z 36005KT 10SM CLR 01/M07 A3054 RMK AO2 SLP346 T00111067
KMEM 220054Z 34005KT 10SM CLR 02/M06 A3055 RMK AO2 SLP348 T00171061
KMEM 212354Z 34006KT 10SM CLR 02/M07 A3054 RMK AO2 SLP346 T00221067 10067 20022 58016
KMEM 212254Z 32008KT 10SM CLR 04/M07 A3056 RMK AO2 SLP351 T00441067
KMEM 212154Z 32008KT 10SM CLR 06/M07 A3058 RMK AO2 SLP357 T00561067
KMEM 212054Z 28006KT 10SM CLR 06/M10 A3059 RMK AO2 SLP362 T00611100 56026
KMEM 211954Z 33005KT 10SM CLR 06/M08 A3061 RMK AO2 SLP367 T00611083
KMEM 211854Z 01007KT 10SM CLR 05/M08 A3064 RMK AO2 SLP378 T00501083
KMEM 211754Z 02005KT 10SM CLR 03/M09 A3067 RMK AO2 SLP388 T00331089 10033 21039 58009
KMEM 211654Z 02006G14KT 10SM CLR 02/M08 A3069 RMK AO2 SLP396 T00221083
KMEM 211554Z 03009KT 10SM CLR 01/M08 A3070 RMK AO2 SLP397 T00061083
KMEM 211454Z 06010KT 10SM CLR M01/M09 A3070 RMK AO2 SLP397 T10111089 51016
KMEM 211354Z 04011KT 10SM CLR M02/M09 A3069 RMK AO2 SLP393 T10221094
KMEM 211254Z 03009KT 10SM CLR M03/M09 A3067 RMK AO2 SLP387 T10331094
KMEM 211154Z 02007KT 10SM CLR M04/M09 A3065 RMK AO2 SLP381 70014 T10391089 11011 21039 53006
KMEM 211054Z 01008KT 10SM CLR M03/M08 A3063 RMK AO2 SLP376 T10331083
KMEM 210954Z 03009KT 10SM CLR M02/M09 A3063 RMK AO2 SLP373 T10221094
KMEM 210854Z 01008KT 10SM CLR M03/M08 A3063 RMK AO2 SLP374 T10281078 51001
KMEM 210754Z 01010KT 10SM CLR M02/M08 A3063 RMK AO2 SLP374 T10221078
KMEM 210654Z 01007KT 10SM CLR M02/M08 A3063 RMK AO2 SLP375 T10171078
KMEM 210554Z 01009KT 10SM CLR M01/M07 A3063 RMK AO2 SLP373 T10111072 10044 21011 400781011 51012
KMEM 210454Z 01015G22KT 10SM CLR 00/M07 A3062 RMK AO2 PK WND 01026/0408 SLP371 T00001067
KMEM 210354Z 01016G22KT 10SM CLR 01/M06 A3062 RMK AO2 SLP370 T00061061
KMEM 210254Z 01017KT 10SM CLR 02/M05 A3059 RMK AO2 SLP361 T00171050 53026